Richmond South's Hourly Summary for Tuesday, July 10, 2018
Hour Temp
(f)
RH
(%)
Solar Rad.
(MJ/m2)
Rainfall
(in)
Wind
(mph)
7/10/2018 12:00 AM 76 91 0 0 0
7/10/2018 1:00 AM 75 94 0 0 0
7/10/2018 2:00 AM 74 95 0 0 0
7/10/2018 3:00 AM 74 96 0 0 0
7/10/2018 4:00 AM 73 96 0 0 0
7/10/2018 5:00 AM 73 96 0 0 0
7/10/2018 6:00 AM 73 96 0 0 0
7/10/2018 7:00 AM 73 96 0.03 0 0.08
7/10/2018 8:00 AM 75 94 0.37 0 0.54
7/10/2018 9:00 AM 80 80 0.63 0 0.17
7/10/2018 10:00 AM 84 70 1.15 0 1.66
7/10/2018 11:00 AM 85 66 1.99 0 2.53
7/10/2018 12:00 PM 87 58 2.36 0 0.89
7/10/2018 1:00 PM 88 54 2.87 0 1.68
7/10/2018 2:00 PM 90 51 3.35 0 2.13
7/10/2018 3:00 PM 92 48 3.34 0 1.73
7/10/2018 4:00 PM 90 48 2.17 0 3.36
7/10/2018 5:00 PM 90 54 2.52 0 6.08
7/10/2018 6:00 PM 89 57 1.8 0 5.9
7/10/2018 7:00 PM 88 57 1.16 0 5.62
7/10/2018 8:00 PM 85 64 0.43 0 4.83
7/10/2018 9:00 PM 81 76 0.03 0 3.08
7/10/2018 10:00 PM 79 84 0 0 2.81
7/10/2018 11:00 PM 77 88 0 0 2.27
Data Summary 81 75 24.20 0.00 1.89